sensor_id;sensor_type;location;lat;lon;timestamp;P1;durP1;ratioP1;P2;durP2;ratioP2
31386;SDS011;18017;50.124;8.688;2022-12-10T00:01:19;21.88;;;6.93;;
31386;SDS011;18017;50.124;8.688;2022-12-10T00:03:45;23.85;;;7.28;;
31386;SDS011;18017;50.124;8.688;2022-12-10T00:06:13;25.60;;;7.93;;
31386;SDS011;18017;50.124;8.688;2022-12-10T00:08:40;24.50;;;7.95;;
31386;SDS011;18017;50.124;8.688;2022-12-10T00:11:07;24.95;;;8.02;;
31386;SDS011;18017;50.124;8.688;2022-12-10T00:13:34;23.75;;;7.93;;
31386;SDS011;18017;50.124;8.688;2022-12-10T00:16:01;25.75;;;7.78;;
31386;SDS011;18017;50.124;8.688;2022-12-10T00:18:28;25.38;;;7.28;;
31386;SDS011;18017;50.124;8.688;2022-12-10T00:20:54;23.83;;;7.85;;
31386;SDS011;18017;50.124;8.688;2022-12-10T00:23:19;23.95;;;8.30;;
31386;SDS011;18017;50.124;8.688;2022-12-10T00:25:45;22.50;;;7.50;;
31386;SDS011;18017;50.124;8.688;2022-12-10T00:28:11;23.70;;;7.43;;
31386;SDS011;18017;50.124;8.688;2022-12-10T00:30:37;24.98;;;7.85;;
31386;SDS011;18017;50.124;8.688;2022-12-10T00:33:03;24.17;;;8.23;;
31386;SDS011;18017;50.124;8.688;2022-12-10T00:35:29;21.98;;;6.80;;
31386;SDS011;18017;50.124;8.688;2022-12-10T00:37:54;19.85;;;7.05;;
31386;SDS011;18017;50.124;8.688;2022-12-10T00:40:20;22.00;;;7.40;;
31386;SDS011;18017;50.124;8.688;2022-12-10T00:42:46;23.23;;;7.57;;
31386;SDS011;18017;50.124;8.688;2022-12-10T00:45:12;19.70;;;7.07;;
31386;SDS011;18017;50.124;8.688;2022-12-10T00:47:37;20.35;;;6.95;;
31386;SDS011;18017;50.124;8.688;2022-12-10T00:50:03;21.05;;;7.35;;
31386;SDS011;18017;50.124;8.688;2022-12-10T00:52:29;21.67;;;6.95;;
31386;SDS011;18017;50.124;8.688;2022-12-10T00:54:54;18.75;;;6.55;;
31386;SDS011;18017;50.124;8.688;2022-12-10T00:57:20;18.20;;;6.95;;
31386;SDS011;18017;50.124;8.688;2022-12-10T00:59:45;18.85;;;6.57;;
31386;SDS011;18017;50.124;8.688;2022-12-10T01:02:11;20.38;;;6.13;;
31386;SDS011;18017;50.124;8.688;2022-12-10T01:04:36;17.85;;;6.22;;
31386;SDS011;18017;50.124;8.688;2022-12-10T01:07:02;23.55;;;6.80;;
31386;SDS011;18017;50.124;8.688;2022-12-10T01:09:28;17.20;;;6.32;;
31386;SDS011;18017;50.124;8.688;2022-12-10T01:11:56;19.05;;;6.30;;
31386;SDS011;18017;50.124;8.688;2022-12-10T01:14:29;19.70;;;6.82;;
31386;SDS011;18017;50.124;8.688;2022-12-10T01:16:57;19.80;;;6.70;;
31386;SDS011;18017;50.124;8.688;2022-12-10T01:19:28;19.17;;;6.30;;
31386;SDS011;18017;50.124;8.688;2022-12-10T01:21:55;18.77;;;6.30;;
31386;SDS011;18017;50.124;8.688;2022-12-10T01:24:22;19.38;;;6.22;;
31386;SDS011;18017;50.124;8.688;2022-12-10T01:26:49;17.73;;;5.88;;
31386;SDS011;18017;50.124;8.688;2022-12-10T01:29:15;18.50;;;6.20;;
31386;SDS011;18017;50.124;8.688;2022-12-10T01:31:41;19.73;;;6.10;;
31386;SDS011;18017;50.124;8.688;2022-12-10T01:34:07;19.85;;;6.30;;
31386;SDS011;18017;50.124;8.688;2022-12-10T01:36:38;17.60;;;5.93;;
31386;SDS011;18017;50.124;8.688;2022-12-10T01:39:07;17.15;;;5.68;;
31386;SDS011;18017;50.124;8.688;2022-12-10T01:41:35;18.50;;;6.03;;
31386;SDS011;18017;50.124;8.688;2022-12-10T01:44:05;18.95;;;6.65;;
31386;SDS011;18017;50.124;8.688;2022-12-10T01:46:38;17.05;;;6.05;;
31386;SDS011;18017;50.124;8.688;2022-12-10T01:49:08;20.77;;;6.47;;
31386;SDS011;18017;50.124;8.688;2022-12-10T01:51:37;16.48;;;5.65;;
31386;SDS011;18017;50.124;8.688;2022-12-10T01:54:06;15.88;;;5.63;;
31386;SDS011;18017;50.124;8.688;2022-12-10T01:56:40;16.65;;;5.35;;
31386;SDS011;18017;50.124;8.688;2022-12-10T01:59:09;21.33;;;6.35;;
31386;SDS011;18017;50.124;8.688;2022-12-10T02:04:33;16.42;;;5.47;;
31386;SDS011;18017;50.124;8.688;2022-12-10T02:07:11;15.90;;;5.88;;
31386;SDS011;18017;50.124;8.688;2022-12-10T02:09:58;16.40;;;5.10;;
31386;SDS011;18017;50.124;8.688;2022-12-10T02:12:44;15.65;;;5.05;;
31386;SDS011;18017;50.124;8.688;2022-12-10T02:17:52;16.42;;;5.45;;
31386;SDS011;18017;50.124;8.688;2022-12-10T02:20:32;17.70;;;5.93;;
31386;SDS011;18017;50.124;8.688;2022-12-10T02:23:33;17.50;;;5.90;;
31386;SDS011;18017;50.124;8.688;2022-12-10T02:26:10;19.33;;;6.05;;
31386;SDS011;18017;50.124;8.688;2022-12-10T02:28:44;15.52;;;5.57;;
31386;SDS011;18017;50.124;8.688;2022-12-10T02:31:30;13.45;;;4.90;;
31386;SDS011;18017;50.124;8.688;2022-12-10T02:33:58;14.82;;;5.15;;
31386;SDS011;18017;50.124;8.688;2022-12-10T02:36:27;14.07;;;4.90;;
31386;SDS011;18017;50.124;8.688;2022-12-10T02:38:55;14.05;;;5.50;;
31386;SDS011;18017;50.124;8.688;2022-12-10T02:41:34;15.85;;;5.30;;
31386;SDS011;18017;50.124;8.688;2022-12-10T02:44:03;15.90;;;5.25;;
31386;SDS011;18017;50.124;8.688;2022-12-10T02:46:33;17.77;;;5.68;;
31386;SDS011;18017;50.124;8.688;2022-12-10T02:49:02;16.15;;;5.07;;
31386;SDS011;18017;50.124;8.688;2022-12-10T02:51:29;15.85;;;4.75;;
31386;SDS011;18017;50.124;8.688;2022-12-10T02:54:06;14.13;;;5.18;;
31386;SDS011;18017;50.124;8.688;2022-12-10T02:56:57;17.27;;;5.30;;
31386;SDS011;18017;50.124;8.688;2022-12-10T02:59:33;15.63;;;5.40;;
31386;SDS011;18017;50.124;8.688;2022-12-10T03:02:12;15.90;;;5.20;;
31386;SDS011;18017;50.124;8.688;2022-12-10T03:04:52;14.77;;;5.03;;
31386;SDS011;18017;50.124;8.688;2022-12-10T03:07:34;13.80;;;5.13;;
31386;SDS011;18017;50.124;8.688;2022-12-10T03:10:12;15.13;;;5.05;;
31386;SDS011;18017;50.124;8.688;2022-12-10T03:12:50;15.43;;;5.22;;
31386;SDS011;18017;50.124;8.688;2022-12-10T03:15:23;15.02;;;5.35;;
31386;SDS011;18017;50.124;8.688;2022-12-10T03:17:51;18.13;;;5.75;;
31386;SDS011;18017;50.124;8.688;2022-12-10T03:20:19;15.57;;;5.70;;
31386;SDS011;18017;50.124;8.688;2022-12-10T03:22:47;17.02;;;5.60;;
31386;SDS011;18017;50.124;8.688;2022-12-10T03:25:14;18.58;;;5.43;;
31386;SDS011;18017;50.124;8.688;2022-12-10T03:27:43;19.67;;;5.45;;
31386;SDS011;18017;50.124;8.688;2022-12-10T03:30:14;15.10;;;4.65;;
31386;SDS011;18017;50.124;8.688;2022-12-10T03:32:40;14.90;;;4.80;;
31386;SDS011;18017;50.124;8.688;2022-12-10T03:35:08;17.83;;;5.97;;
31386;SDS011;18017;50.124;8.688;2022-12-10T03:37:35;16.60;;;6.00;;
31386;SDS011;18017;50.124;8.688;2022-12-10T03:40:02;17.10;;;5.90;;
31386;SDS011;18017;50.124;8.688;2022-12-10T03:42:28;19.10;;;5.63;;
31386;SDS011;18017;50.124;8.688;2022-12-10T03:44:54;15.98;;;5.50;;
31386;SDS011;18017;50.124;8.688;2022-12-10T03:47:20;16.08;;;5.43;;
31386;SDS011;18017;50.124;8.688;2022-12-10T03:49:46;20.00;;;5.60;;
31386;SDS011;18017;50.124;8.688;2022-12-10T03:52:11;18.40;;;6.10;;
31386;SDS011;18017;50.124;8.688;2022-12-10T03:54:37;18.30;;;5.53;;
31386;SDS011;18017;50.124;8.688;2022-12-10T03:57:02;16.77;;;5.85;;
31386;SDS011;18017;50.124;8.688;2022-12-10T03:59:28;16.23;;;5.22;;
31386;SDS011;18017;50.124;8.688;2022-12-10T04:01:53;20.20;;;6.32;;
31386;SDS011;18017;50.124;8.688;2022-12-10T04:04:19;17.55;;;5.70;;
31386;SDS011;18017;50.124;8.688;2022-12-10T04:06:45;17.83;;;5.63;;
31386;SDS011;18017;50.124;8.688;2022-12-10T04:09:11;18.30;;;6.10;;
31386;SDS011;18017;50.124;8.688;2022-12-10T04:11:38;18.10;;;5.38;;
31386;SDS011;18017;50.124;8.688;2022-12-10T04:14:04;16.77;;;5.70;;
31386;SDS011;18017;50.124;8.688;2022-12-10T04:16:48;16.80;;;5.80;;
31386;SDS011;18017;50.124;8.688;2022-12-10T04:19:15;18.98;;;5.65;;
31386;SDS011;18017;50.124;8.688;2022-12-10T04:21:42;16.88;;;5.53;;
31386;SDS011;18017;50.124;8.688;2022-12-10T04:24:28;18.55;;;5.95;;
31386;SDS011;18017;50.124;8.688;2022-12-10T04:27:18;19.50;;;6.65;;
31386;SDS011;18017;50.124;8.688;2022-12-10T04:29:49;18.23;;;5.72;;
31386;SDS011;18017;50.124;8.688;2022-12-10T04:32:15;18.27;;;5.93;;
31386;SDS011;18017;50.124;8.688;2022-12-10T04:34:41;22.50;;;7.03;;
31386;SDS011;18017;50.124;8.688;2022-12-10T04:37:07;15.38;;;5.72;;
31386;SDS011;18017;50.124;8.688;2022-12-10T04:39:33;18.63;;;6.00;;
31386;SDS011;18017;50.124;8.688;2022-12-10T04:41:59;21.02;;;6.30;;
31386;SDS011;18017;50.124;8.688;2022-12-10T04:44:25;19.05;;;6.15;;
31386;SDS011;18017;50.124;8.688;2022-12-10T04:46:51;21.27;;;6.82;;
31386;SDS011;18017;50.124;8.688;2022-12-10T04:49:17;20.27;;;6.03;;
31386;SDS011;18017;50.124;8.688;2022-12-10T04:51:43;20.13;;;5.80;;
31386;SDS011;18017;50.124;8.688;2022-12-10T04:54:09;15.68;;;5.63;;
31386;SDS011;18017;50.124;8.688;2022-12-10T04:56:35;17.33;;;5.72;;
31386;SDS011;18017;50.124;8.688;2022-12-10T04:59:01;17.65;;;5.50;;
31386;SDS011;18017;50.124;8.688;2022-12-10T05:01:28;17.50;;;5.90;;
31386;SDS011;18017;50.124;8.688;2022-12-10T05:03:54;18.95;;;5.93;;
31386;SDS011;18017;50.124;8.688;2022-12-10T05:06:23;18.00;;;6.20;;
31386;SDS011;18017;50.124;8.688;2022-12-10T05:08:48;20.67;;;6.32;;
31386;SDS011;18017;50.124;8.688;2022-12-10T05:11:19;18.80;;;6.20;;
31386;SDS011;18017;50.124;8.688;2022-12-10T05:13:46;17.00;;;6.15;;
31386;SDS011;18017;50.124;8.688;2022-12-10T05:16:12;16.73;;;5.53;;
31386;SDS011;18017;50.124;8.688;2022-12-10T05:18:39;18.70;;;5.68;;
31386;SDS011;18017;50.124;8.688;2022-12-10T05:21:06;20.00;;;6.40;;
31386;SDS011;18017;50.124;8.688;2022-12-10T05:23:35;20.58;;;5.88;;
31386;SDS011;18017;50.124;8.688;2022-12-10T05:26:03;19.35;;;6.60;;
31386;SDS011;18017;50.124;8.688;2022-12-10T05:28:36;18.17;;;5.85;;
31386;SDS011;18017;50.124;8.688;2022-12-10T05:31:11;18.52;;;6.30;;
31386;SDS011;18017;50.124;8.688;2022-12-10T05:33:42;17.10;;;5.82;;
31386;SDS011;18017;50.124;8.688;2022-12-10T05:36:09;17.85;;;6.13;;
31386;SDS011;18017;50.124;8.688;2022-12-10T05:38:36;19.83;;;6.07;;
31386;SDS011;18017;50.124;8.688;2022-12-10T05:41:03;19.67;;;6.13;;
31386;SDS011;18017;50.124;8.688;2022-12-10T05:43:30;17.45;;;6.03;;
31386;SDS011;18017;50.124;8.688;2022-12-10T05:45:59;19.30;;;5.90;;
31386;SDS011;18017;50.124;8.688;2022-12-10T05:48:29;17.40;;;5.53;;
31386;SDS011;18017;50.124;8.688;2022-12-10T05:50:55;16.30;;;5.85;;
31386;SDS011;18017;50.124;8.688;2022-12-10T05:53:21;17.67;;;5.53;;
31386;SDS011;18017;50.124;8.688;2022-12-10T05:55:46;16.58;;;5.85;;
31386;SDS011;18017;50.124;8.688;2022-12-10T05:58:12;19.63;;;6.10;;
31386;SDS011;18017;50.124;8.688;2022-12-10T06:00:38;15.75;;;5.90;;
31386;SDS011;18017;50.124;8.688;2022-12-10T06:03:05;16.58;;;5.82;;
31386;SDS011;18017;50.124;8.688;2022-12-10T06:05:35;16.92;;;5.78;;
31386;SDS011;18017;50.124;8.688;2022-12-10T06:08:02;19.93;;;5.93;;
31386;SDS011;18017;50.124;8.688;2022-12-10T06:10:28;16.38;;;5.82;;
31386;SDS011;18017;50.124;8.688;2022-12-10T06:12:54;14.57;;;5.88;;
31386;SDS011;18017;50.124;8.688;2022-12-10T06:15:19;16.95;;;5.72;;
31386;SDS011;18017;50.124;8.688;2022-12-10T06:17:45;16.88;;;5.63;;
31386;SDS011;18017;50.124;8.688;2022-12-10T06:20:10;16.23;;;5.78;;
31386;SDS011;18017;50.124;8.688;2022-12-10T06:22:36;17.45;;;5.60;;
31386;SDS011;18017;50.124;8.688;2022-12-10T06:25:02;15.15;;;5.32;;
31386;SDS011;18017;50.124;8.688;2022-12-10T06:27:29;18.85;;;6.40;;
31386;SDS011;18017;50.124;8.688;2022-12-10T06:29:56;18.83;;;6.18;;
31386;SDS011;18017;50.124;8.688;2022-12-10T06:32:22;20.42;;;6.03;;
31386;SDS011;18017;50.124;8.688;2022-12-10T06:34:47;16.73;;;5.80;;
31386;SDS011;18017;50.124;8.688;2022-12-10T06:37:13;16.17;;;5.72;;
31386;SDS011;18017;50.124;8.688;2022-12-10T06:39:38;15.75;;;5.35;;
31386;SDS011;18017;50.124;8.688;2022-12-10T06:42:04;18.15;;;5.97;;
31386;SDS011;18017;50.124;8.688;2022-12-10T06:44:30;17.83;;;6.28;;
31386;SDS011;18017;50.124;8.688;2022-12-10T06:46:56;16.65;;;5.80;;
31386;SDS011;18017;50.124;8.688;2022-12-10T06:49:21;16.05;;;5.82;;
31386;SDS011;18017;50.124;8.688;2022-12-10T06:51:47;17.35;;;5.65;;
31386;SDS011;18017;50.124;8.688;2022-12-10T06:54:13;17.90;;;5.28;;
31386;SDS011;18017;50.124;8.688;2022-12-10T06:56:39;15.38;;;5.20;;
31386;SDS011;18017;50.124;8.688;2022-12-10T06:59:05;20.88;;;6.43;;
31386;SDS011;18017;50.124;8.688;2022-12-10T07:01:31;16.50;;;5.93;;
31386;SDS011;18017;50.124;8.688;2022-12-10T07:03:57;14.23;;;5.55;;
31386;SDS011;18017;50.124;8.688;2022-12-10T07:06:22;16.73;;;5.95;;
31386;SDS011;18017;50.124;8.688;2022-12-10T07:08:49;19.13;;;6.10;;
31386;SDS011;18017;50.124;8.688;2022-12-10T07:11:16;17.52;;;6.28;;
31386;SDS011;18017;50.124;8.688;2022-12-10T07:13:45;20.50;;;6.63;;
31386;SDS011;18017;50.124;8.688;2022-12-10T07:16:29;18.08;;;6.28;;
31386;SDS011;18017;50.124;8.688;2022-12-10T07:18:57;16.15;;;5.75;;
31386;SDS011;18017;50.124;8.688;2022-12-10T07:21:25;16.70;;;6.10;;
31386;SDS011;18017;50.124;8.688;2022-12-10T07:24:01;16.77;;;5.45;;
31386;SDS011;18017;50.124;8.688;2022-12-10T07:26:32;18.13;;;6.05;;
31386;SDS011;18017;50.124;8.688;2022-12-10T07:29:00;12.63;;;5.63;;
31386;SDS011;18017;50.124;8.688;2022-12-10T07:31:27;15.57;;;5.63;;
31386;SDS011;18017;50.124;8.688;2022-12-10T07:33:53;20.67;;;6.00;;
31386;SDS011;18017;50.124;8.688;2022-12-10T07:36:20;17.08;;;5.70;;
31386;SDS011;18017;50.124;8.688;2022-12-10T07:38:47;17.45;;;5.75;;
31386;SDS011;18017;50.124;8.688;2022-12-10T07:41:13;18.38;;;6.07;;
31386;SDS011;18017;50.124;8.688;2022-12-10T07:43:40;18.55;;;5.90;;
31386;SDS011;18017;50.124;8.688;2022-12-10T07:46:26;17.13;;;6.03;;
31386;SDS011;18017;50.124;8.688;2022-12-10T07:48:53;14.07;;;5.32;;
31386;SDS011;18017;50.124;8.688;2022-12-10T07:51:20;16.58;;;5.85;;
31386;SDS011;18017;50.124;8.688;2022-12-10T07:53:47;16.13;;;5.03;;
31386;SDS011;18017;50.124;8.688;2022-12-10T07:56:15;16.98;;;5.22;;
31386;SDS011;18017;50.124;8.688;2022-12-10T07:58:41;14.50;;;5.38;;
31386;SDS011;18017;50.124;8.688;2022-12-10T08:01:11;16.63;;;5.22;;
31386;SDS011;18017;50.124;8.688;2022-12-10T08:03:39;15.20;;;5.30;;
31386;SDS011;18017;50.124;8.688;2022-12-10T08:06:07;13.63;;;5.00;;
31386;SDS011;18017;50.124;8.688;2022-12-10T08:08:35;14.35;;;5.00;;
31386;SDS011;18017;50.124;8.688;2022-12-10T08:11:02;13.85;;;5.75;;
31386;SDS011;18017;50.124;8.688;2022-12-10T08:13:30;15.98;;;5.40;;
31386;SDS011;18017;50.124;8.688;2022-12-10T08:18:32;14.30;;;5.28;;
31386;SDS011;18017;50.124;8.688;2022-12-10T08:21:02;12.80;;;5.22;;
31386;SDS011;18017;50.124;8.688;2022-12-10T08:23:29;13.95;;;5.15;;
31386;SDS011;18017;50.124;8.688;2022-12-10T08:25:55;14.90;;;5.50;;
31386;SDS011;18017;50.124;8.688;2022-12-10T08:28:20;12.63;;;5.47;;
31386;SDS011;18017;50.124;8.688;2022-12-10T08:30:46;17.00;;;5.35;;
31386;SDS011;18017;50.124;8.688;2022-12-10T08:33:12;12.05;;;4.93;;
31386;SDS011;18017;50.124;8.688;2022-12-10T08:35:37;14.02;;;5.15;;
31386;SDS011;18017;50.124;8.688;2022-12-10T08:38:03;14.43;;;5.78;;
31386;SDS011;18017;50.124;8.688;2022-12-10T08:40:29;13.52;;;5.13;;
31386;SDS011;18017;50.124;8.688;2022-12-10T08:42:54;15.90;;;5.82;;
31386;SDS011;18017;50.124;8.688;2022-12-10T08:45:20;11.77;;;5.03;;
31386;SDS011;18017;50.124;8.688;2022-12-10T08:47:45;16.63;;;5.25;;
31386;SDS011;18017;50.124;8.688;2022-12-10T08:50:11;12.93;;;5.22;;
31386;SDS011;18017;50.124;8.688;2022-12-10T08:52:36;12.75;;;5.15;;
31386;SDS011;18017;50.124;8.688;2022-12-10T08:55:02;11.57;;;4.80;;
31386;SDS011;18017;50.124;8.688;2022-12-10T08:57:28;13.60;;;4.97;;
31386;SDS011;18017;50.124;8.688;2022-12-10T08:59:53;14.73;;;5.35;;
31386;SDS011;18017;50.124;8.688;2022-12-10T09:02:19;13.18;;;5.22;;
31386;SDS011;18017;50.124;8.688;2022-12-10T09:04:44;12.50;;;4.90;;
31386;SDS011;18017;50.124;8.688;2022-12-10T09:07:11;13.75;;;5.10;;
31386;SDS011;18017;50.124;8.688;2022-12-10T09:09:37;13.75;;;5.03;;
31386;SDS011;18017;50.124;8.688;2022-12-10T09:12:02;13.40;;;5.47;;
31386;SDS011;18017;50.124;8.688;2022-12-10T09:14:28;12.80;;;5.30;;
31386;SDS011;18017;50.124;8.688;2022-12-10T09:16:54;16.52;;;4.97;;
31386;SDS011;18017;50.124;8.688;2022-12-10T09:19:19;15.52;;;5.00;;
31386;SDS011;18017;50.124;8.688;2022-12-10T09:21:45;11.70;;;4.60;;
31386;SDS011;18017;50.124;8.688;2022-12-10T09:24:12;12.27;;;4.90;;
31386;SDS011;18017;50.124;8.688;2022-12-10T09:26:37;11.55;;;4.60;;
31386;SDS011;18017;50.124;8.688;2022-12-10T09:29:03;12.23;;;4.28;;
31386;SDS011;18017;50.124;8.688;2022-12-10T09:31:30;9.82;;;4.35;;
31386;SDS011;18017;50.124;8.688;2022-12-10T09:33:56;11.35;;;4.47;;
31386;SDS011;18017;50.124;8.688;2022-12-10T09:36:22;12.77;;;4.53;;
31386;SDS011;18017;50.124;8.688;2022-12-10T09:38:48;9.95;;;4.45;;
31386;SDS011;18017;50.124;8.688;2022-12-10T09:41:19;11.82;;;5.10;;
31386;SDS011;18017;50.124;8.688;2022-12-10T09:44:01;9.95;;;4.40;;
31386;SDS011;18017;50.124;8.688;2022-12-10T09:46:37;13.50;;;5.10;;
31386;SDS011;18017;50.124;8.688;2022-12-10T09:51:38;11.85;;;4.75;;
31386;SDS011;18017;50.124;8.688;2022-12-10T09:54:04;13.13;;;4.63;;
31386;SDS011;18017;50.124;8.688;2022-12-10T09:56:46;10.55;;;4.50;;
31386;SDS011;18017;50.124;8.688;2022-12-10T10:04:52;10.45;;;4.30;;
31386;SDS011;18017;50.124;8.688;2022-12-10T10:07:42;12.00;;;4.95;;
31386;SDS011;18017;50.124;8.688;2022-12-10T10:10:16;13.85;;;5.32;;
31386;SDS011;18017;50.124;8.688;2022-12-10T10:12:54;11.57;;;4.87;;
31386;SDS011;18017;50.124;8.688;2022-12-10T10:15:30;12.32;;;4.85;;
31386;SDS011;18017;50.124;8.688;2022-12-10T10:17:58;13.10;;;5.10;;
31386;SDS011;18017;50.124;8.688;2022-12-10T10:20:27;14.35;;;5.35;;
31386;SDS011;18017;50.124;8.688;2022-12-10T10:22:53;11.82;;;4.80;;
31386;SDS011;18017;50.124;8.688;2022-12-10T10:25:22;9.98;;;4.57;;
31386;SDS011;18017;50.124;8.688;2022-12-10T10:27:48;11.57;;;5.03;;
31386;SDS011;18017;50.124;8.688;2022-12-10T10:30:16;13.32;;;4.97;;
31386;SDS011;18017;50.124;8.688;2022-12-10T10:32:53;13.73;;;5.28;;
31386;SDS011;18017;50.124;8.688;2022-12-10T10:35:21;16.08;;;5.53;;
31386;SDS011;18017;50.124;8.688;2022-12-10T10:37:50;14.52;;;4.90;;
31386;SDS011;18017;50.124;8.688;2022-12-10T10:40:22;13.00;;;5.55;;
31386;SDS011;18017;50.124;8.688;2022-12-10T10:42:57;12.73;;;4.60;;
31386;SDS011;18017;50.124;8.688;2022-12-10T10:45:38;11.93;;;5.32;;
31386;SDS011;18017;50.124;8.688;2022-12-10T10:48:16;13.38;;;5.60;;
31386;SDS011;18017;50.124;8.688;2022-12-10T10:50:49;13.63;;;5.05;;
31386;SDS011;18017;50.124;8.688;2022-12-10T10:53:30;12.63;;;5.32;;
31386;SDS011;18017;50.124;8.688;2022-12-10T10:56:10;12.65;;;5.20;;
31386;SDS011;18017;50.124;8.688;2022-12-10T11:01:12;12.82;;;5.40;;
31386;SDS011;18017;50.124;8.688;2022-12-10T11:03:37;13.90;;;5.13;;
31386;SDS011;18017;50.124;8.688;2022-12-10T11:06:12;11.73;;;5.00;;
31386;SDS011;18017;50.124;8.688;2022-12-10T11:08:38;14.38;;;5.60;;
31386;SDS011;18017;50.124;8.688;2022-12-10T11:11:51;15.23;;;6.05;;
31386;SDS011;18017;50.124;8.688;2022-12-10T11:19:35;10.82;;;4.75;;
31386;SDS011;18017;50.124;8.688;2022-12-10T11:22:23;14.98;;;5.35;;
31386;SDS011;18017;50.124;8.688;2022-12-10T11:24:50;16.55;;;5.85;;
31386;SDS011;18017;50.124;8.688;2022-12-10T11:27:41;14.35;;;5.55;;
31386;SDS011;18017;50.124;8.688;2022-12-10T11:30:23;14.27;;;5.38;;
31386;SDS011;18017;50.124;8.688;2022-12-10T11:33:14;16.40;;;5.72;;
31386;SDS011;18017;50.124;8.688;2022-12-10T11:38:47;12.82;;;5.70;;
31386;SDS011;18017;50.124;8.688;2022-12-10T11:46:57;11.10;;;4.55;;
31386;SDS011;18017;50.124;8.688;2022-12-10T11:55:55;8.43;;;4.47;;
31386;SDS011;18017;50.124;8.688;2022-12-10T12:01:31;7.15;;;4.43;;
31386;SDS011;18017;50.124;8.688;2022-12-10T12:04:19;6.55;;;3.80;;
31386;SDS011;18017;50.124;8.688;2022-12-10T12:07:23;6.10;;;3.78;;
31386;SDS011;18017;50.124;8.688;2022-12-10T12:16:49;8.00;;;4.22;;
31386;SDS011;18017;50.124;8.688;2022-12-10T12:18:47;9.57;;;4.60;;
31386;SDS011;18017;50.124;8.688;2022-12-10T12:21:19;7.40;;;4.22;;
31386;SDS011;18017;50.124;8.688;2022-12-10T12:23:46;6.95;;;3.97;;
31386;SDS011;18017;50.124;8.688;2022-12-10T12:26:15;6.78;;;4.20;;
31386;SDS011;18017;50.124;8.688;2022-12-10T12:29:20;7.15;;;4.07;;
31386;SDS011;18017;50.124;8.688;2022-12-10T12:32:18;7.88;;;4.25;;
31386;SDS011;18017;50.124;8.688;2022-12-10T12:35:14;6.97;;;3.72;;
31386;SDS011;18017;50.124;8.688;2022-12-10T12:37:50;8.05;;;4.72;;
31386;SDS011;18017;50.124;8.688;2022-12-10T12:43:03;8.25;;;3.97;;
31386;SDS011;18017;50.124;8.688;2022-12-10T12:45:45;7.72;;;4.13;;
31386;SDS011;18017;50.124;8.688;2022-12-10T12:51:11;10.50;;;4.35;;
31386;SDS011;18017;50.124;8.688;2022-12-10T12:53:49;9.30;;;4.43;;
31386;SDS011;18017;50.124;8.688;2022-12-10T13:01:53;10.93;;;5.00;;
31386;SDS011;18017;50.124;8.688;2022-12-10T13:04:23;10.80;;;4.38;;
31386;SDS011;18017;50.124;8.688;2022-12-10T13:09:48;12.55;;;4.00;;
31386;SDS011;18017;50.124;8.688;2022-12-10T13:12:17;10.98;;;4.50;;
31386;SDS011;18017;50.124;8.688;2022-12-10T13:15:01;10.68;;;4.65;;
31386;SDS011;18017;50.124;8.688;2022-12-10T13:17:37;10.65;;;4.10;;
31386;SDS011;18017;50.124;8.688;2022-12-10T13:25:39;11.63;;;4.65;;
31386;SDS011;18017;50.124;8.688;2022-12-10T13:33:53;9.68;;;3.85;;
31386;SDS011;18017;50.124;8.688;2022-12-10T13:39:19;10.65;;;4.07;;
31386;SDS011;18017;50.124;8.688;2022-12-10T13:42:20;9.65;;;3.83;;
31386;SDS011;18017;50.124;8.688;2022-12-10T13:47:50;8.65;;;3.65;;
31386;SDS011;18017;50.124;8.688;2022-12-10T13:50:39;9.00;;;3.63;;
31386;SDS011;18017;50.124;8.688;2022-12-10T13:55:55;9.82;;;4.18;;
31386;SDS011;18017;50.124;8.688;2022-12-10T13:58:49;9.85;;;4.20;;
31386;SDS011;18017;50.124;8.688;2022-12-10T14:04:27;12.43;;;3.63;;
31386;SDS011;18017;50.124;8.688;2022-12-10T14:07:14;8.93;;;3.35;;
31386;SDS011;18017;50.124;8.688;2022-12-10T14:09:51;10.75;;;3.70;;
31386;SDS011;18017;50.124;8.688;2022-12-10T14:12:21;9.32;;;3.70;;
31386;SDS011;18017;50.124;8.688;2022-12-10T14:14:53;10.10;;;3.92;;
31386;SDS011;18017;50.124;8.688;2022-12-10T14:17:24;9.40;;;3.75;;
31386;SDS011;18017;50.124;8.688;2022-12-10T14:19:55;10.80;;;3.65;;
31386;SDS011;18017;50.124;8.688;2022-12-10T14:22:29;8.55;;;3.70;;
31386;SDS011;18017;50.124;8.688;2022-12-10T14:24:59;10.80;;;3.70;;
31386;SDS011;18017;50.124;8.688;2022-12-10T14:27:26;11.50;;;4.13;;
31386;SDS011;18017;50.124;8.688;2022-12-10T14:29:57;9.43;;;4.05;;
31386;SDS011;18017;50.124;8.688;2022-12-10T14:35:02;11.07;;;3.80;;
31386;SDS011;18017;50.124;8.688;2022-12-10T14:37:31;10.77;;;3.50;;
31386;SDS011;18017;50.124;8.688;2022-12-10T14:40:01;7.97;;;3.35;;
31386;SDS011;18017;50.124;8.688;2022-12-10T14:42:30;8.38;;;3.28;;
31386;SDS011;18017;50.124;8.688;2022-12-10T14:44:57;9.85;;;3.55;;
31386;SDS011;18017;50.124;8.688;2022-12-10T14:47:24;9.18;;;3.67;;
31386;SDS011;18017;50.124;8.688;2022-12-10T14:49:51;9.32;;;3.75;;
31386;SDS011;18017;50.124;8.688;2022-12-10T14:52:20;8.73;;;3.92;;
31386;SDS011;18017;50.124;8.688;2022-12-10T14:54:57;10.32;;;3.97;;
31386;SDS011;18017;50.124;8.688;2022-12-10T14:57:24;9.60;;;4.15;;
31386;SDS011;18017;50.124;8.688;2022-12-10T14:59:57;8.05;;;3.47;;
31386;SDS011;18017;50.124;8.688;2022-12-10T15:02:31;11.68;;;4.03;;
31386;SDS011;18017;50.124;8.688;2022-12-10T15:04:59;7.80;;;3.28;;
31386;SDS011;18017;50.124;8.688;2022-12-10T15:07:26;12.48;;;3.80;;
31386;SDS011;18017;50.124;8.688;2022-12-10T15:09:59;9.43;;;3.75;;
31386;SDS011;18017;50.124;8.688;2022-12-10T15:12:35;9.88;;;4.20;;
31386;SDS011;18017;50.124;8.688;2022-12-10T15:15:12;8.15;;;3.15;;
31386;SDS011;18017;50.124;8.688;2022-12-10T15:17:42;10.15;;;3.90;;
31386;SDS011;18017;50.124;8.688;2022-12-10T15:20:21;9.93;;;3.40;;
31386;SDS011;18017;50.124;8.688;2022-12-10T15:22:49;9.23;;;3.55;;
31386;SDS011;18017;50.124;8.688;2022-12-10T15:25:27;11.30;;;4.05;;
31386;SDS011;18017;50.124;8.688;2022-12-10T15:27:57;9.88;;;3.97;;
31386;SDS011;18017;50.124;8.688;2022-12-10T15:30:33;11.70;;;4.25;;
31386;SDS011;18017;50.124;8.688;2022-12-10T15:33:20;8.65;;;3.63;;
31386;SDS011;18017;50.124;8.688;2022-12-10T15:35:53;10.25;;;4.00;;
31386;SDS011;18017;50.124;8.688;2022-12-10T15:38:20;11.80;;;4.18;;
31386;SDS011;18017;50.124;8.688;2022-12-10T15:40:46;10.70;;;3.70;;
31386;SDS011;18017;50.124;8.688;2022-12-10T15:45:48;11.00;;;3.90;;
31386;SDS011;18017;50.124;8.688;2022-12-10T15:48:14;11.57;;;4.07;;
31386;SDS011;18017;50.124;8.688;2022-12-10T15:50:40;11.88;;;4.25;;
31386;SDS011;18017;50.124;8.688;2022-12-10T15:53:12;11.60;;;4.18;;
31386;SDS011;18017;50.124;8.688;2022-12-10T15:55:39;12.77;;;4.70;;
31386;SDS011;18017;50.124;8.688;2022-12-10T15:58:11;13.57;;;4.55;;
31386;SDS011;18017;50.124;8.688;2022-12-10T16:00:38;13.10;;;4.90;;
31386;SDS011;18017;50.124;8.688;2022-12-10T16:03:08;9.20;;;3.83;;
31386;SDS011;18017;50.124;8.688;2022-12-10T16:05:42;10.05;;;4.00;;
31386;SDS011;18017;50.124;8.688;2022-12-10T16:08:16;10.48;;;3.67;;
31386;SDS011;18017;50.124;8.688;2022-12-10T16:10:46;11.52;;;4.68;;
31386;SDS011;18017;50.124;8.688;2022-12-10T16:13:19;13.18;;;4.22;;
31386;SDS011;18017;50.124;8.688;2022-12-10T16:18:23;11.77;;;4.30;;
31386;SDS011;18017;50.124;8.688;2022-12-10T16:20:49;11.30;;;4.13;;
31386;SDS011;18017;50.124;8.688;2022-12-10T16:23:15;11.48;;;4.28;;
31386;SDS011;18017;50.124;8.688;2022-12-10T16:25:41;9.73;;;3.60;;
31386;SDS011;18017;50.124;8.688;2022-12-10T16:28:10;9.20;;;3.65;;